Time;durP1;ratioP1;P1;durP2;ratioP2;P2;SDS_P1;SDS_P2;PMS_P1;PMS_P2;Temp;Humidity;BMP_temperature;BMP_pressure;BME280_temperature;BME280_humidity;BME280_pressure;Samples;Min_cycle;Max_cycle;Signal;HPM_P1;HPM_P2
2023/05/16 00:02:46;;;;;;;1.10;0.60;;;;;;;;;;20995762;28;20047;-61
2023/05/16 00:12:50;;;;;;;0.88;0.47;;;;;;;;;;20995538;28;20048;-61
2023/05/16 00:22:51;;;;;;;1.23;0.50;;;;;;;;;;20993516;28;20068;-61
2023/05/16 00:32:54;;;;;;;0.90;0.50;;;;;;;;;;20994850;28;20087;-61
2023/05/16 00:42:55;;;;;;;3.58;0.55;;;;;;;;;;20993081;28;20037;-62
2023/05/16 00:52:56;;;;;;;0.90;0.50;;;;;;;;;;20992617;28;20045;-61
2023/05/16 01:02:57;;;;;;;1.92;0.57;;;;;;;;;;21002485;28;20050;-60
2023/05/16 01:13:19;;;;;;;1.60;0.55;;;;;;;;;;21007756;28;20060;-61
2023/05/16 01:23:39;;;;;;;1.45;0.60;;;;;;;;;;21001602;28;20053;-61
2023/05/16 01:33:40;;;;;;;0.88;0.47;;;;;;;;;;21004859;28;20056;-63
2023/05/16 01:43:44;;;;;;;1.05;0.50;;;;;;;;;;21005149;28;20130;-61
2023/05/16 01:53:45;;;;;;;1.55;0.50;;;;;;;;;;21003024;28;20055;-62
2023/05/16 02:03:46;;;;;;;1.38;0.35;;;;;;;;;;21003539;28;20485;-61
2023/05/16 02:13:47;;;;;;;1.80;0.40;;;;;;;;;;21000614;28;20076;-61
2023/05/16 02:23:48;;;;;;;1.77;0.60;;;;;;;;;;21002104;28;20062;-62
2023/05/16 02:33:49;;;;;;;2.72;0.50;;;;;;;;;;21000874;28;20072;-61
2023/05/16 02:43:50;;;;;;;0.98;0.40;;;;;;;;;;20998861;28;20050;-62
2023/05/16 02:53:52;;;;;;;1.00;0.38;;;;;;;;;;20999526;28;20452;-61
2023/05/16 03:03:53;;;;;;;2.92;0.60;;;;;;;;;;20998657;28;20040;-61
2023/05/16 03:13:54;;;;;;;0.70;0.40;;;;;;;;;;20999418;28;20486;-61
2023/05/16 03:23:55;;;;;;;2.38;0.60;;;;;;;;;;20996119;28;20053;-61
2023/05/16 03:33:56;;;;;;;3.80;0.68;;;;;;;;;;20997210;28;20518;-61
2023/05/16 03:43:58;;;;;;;1.83;0.50;;;;;;;;;;20995374;28;20048;-62
2023/05/16 03:53:59;;;;;;;1.17;0.63;;;;;;;;;;20995013;28;20040;-61
2023/05/16 04:04:00;;;;;;;0.93;0.60;;;;;;;;;;20995683;28;20490;-60
2023/05/16 04:14:01;;;;;;;2.90;0.80;;;;;;;;;;20994230;28;20084;-61
2023/05/16 04:24:02;;;;;;;0.90;0.63;;;;;;;;;;20993358;28;20049;-61
2023/05/16 04:34:04;;;;;;;2.60;0.60;;;;;;;;;;20999122;28;20057;-61
2023/05/16 04:44:05;;;;;;;1.30;0.50;;;;;;;;;;21009728;28;20500;-62
2023/05/16 04:54:07;;;;;;;3.17;1.00;;;;;;;;;;21008621;28;20036;-62
2023/05/16 05:15:06;;;;;;;3.92;1.30;;;;;;;;;;21007558;28;20068;-61
2023/05/16 05:25:07;;;;;;;2.15;1.35;;;;;;;;;;21006073;28;20048;-61
2023/05/16 05:35:09;;;;;;;4.07;1.40;;;;;;;;;;21006080;28;20524;-61
2023/05/16 05:45:10;;;;;;;3.67;1.48;;;;;;;;;;21005470;28;20044;-61
2023/05/16 05:55:11;;;;;;;7.10;1.80;;;;;;;;;;21003626;28;20052;-61
2023/05/16 06:05:12;;;;;;;3.25;1.60;;;;;;;;;;21004996;28;20044;-62
2023/05/16 06:15:13;;;;;;;5.47;1.80;;;;;;;;;;21003943;28;20037;-63
2023/05/16 06:25:14;;;;;;;3.47;1.85;;;;;;;;;;21002151;28;20425;-61
2023/05/16 06:35:15;;;;;;;4.45;1.98;;;;;;;;;;21001834;28;20120;-62
2023/05/16 06:45:17;;;;;;;5.03;1.55;;;;;;;;;;20999308;28;20044;-62
2023/05/16 06:55:18;;;;;;;4.68;1.88;;;;;;;;;;20998717;28;20044;-61
2023/05/16 07:05:19;;;;;;;3.88;1.80;;;;;;;;;;20999546;28;20079;-61
2023/05/16 07:15:20;;;;;;;5.75;1.67;;;;;;;;;;20997824;28;20048;-63
2023/05/16 07:25:21;;;;;;;5.80;2.13;;;;;;;;;;20997857;28;20479;-62
2023/05/16 07:35:22;;;;;;;3.70;1.67;;;;;;;;;;20996439;28;20045;-62
2023/05/16 07:45:23;;;;;;;3.80;1.80;;;;;;;;;;20997565;28;20574;-62
2023/05/16 07:55:25;;;;;;;3.42;1.77;;;;;;;;;;20997238;28;20494;-62
2023/05/16 08:05:26;;;;;;;6.45;1.88;;;;;;;;;;20997097;28;20553;-61
2023/05/16 08:15:27;;;;;;;3.88;1.88;;;;;;;;;;21012207;28;20045;-62
2023/05/16 08:25:28;;;;;;;3.33;1.42;;;;;;;;;;21010542;28;20074;-62
2023/05/16 08:35:30;;;;;;;5.00;1.70;;;;;;;;;;21010511;28;20051;-62
2023/05/16 08:45:31;;;;;;;3.88;1.60;;;;;;;;;;21011087;28;20040;-61
2023/05/16 08:55:32;;;;;;;6.88;1.50;;;;;;;;;;21009997;28;20123;-62
2023/05/16 09:05:34;;;;;;;3.35;1.50;;;;;;;;;;21008171;28;20093;-61
2023/05/16 09:15:35;;;;;;;4.57;1.92;;;;;;;;;;21008468;28;20124;-61
2023/05/16 09:25:36;;;;;;;3.90;1.65;;;;;;;;;;21007546;28;20110;-61
2023/05/16 09:35:38;;;;;;;6.63;2.13;;;;;;;;;;21005837;28;20059;-63
2023/05/16 09:45:44;;;;;;;9.65;2.50;;;;;;;;;;21005277;28;20051;-64
2023/05/16 09:55:46;;;;;;;5.93;1.95;;;;;;;;;;21004035;28;20045;-64
2023/05/16 10:05:47;;;;;;;7.63;2.22;;;;;;;;;;21005019;28;20461;-64
2023/05/16 10:15:49;;;;;;;7.18;2.00;;;;;;;;;;21003984;28;20535;-66
2023/05/16 10:25:50;;;;;;;5.05;2.15;;;;;;;;;;21003151;28;20110;-66
2023/05/16 10:35:51;;;;;;;5.47;2.70;;;;;;;;;;21000200;28;20080;-65
2023/05/16 10:46:09;;;;;;;9.20;4.68;;;;;;;;;;20999751;28;20076;-64
2023/05/16 10:56:11;;;;;;;5.45;2.33;;;;;;;;;;20999476;28;20420;-62
2023/05/16 11:06:12;;;;;;;6.78;2.63;;;;;;;;;;20999076;28;20036;-63
2023/05/16 11:16:28;;;;;;;7.68;2.65;;;;;;;;;;20997502;28;20041;-62
2023/05/16 11:26:30;;;;;;;7.07;2.50;;;;;;;;;;20996359;28;20078;-65
2023/05/16 11:36:33;;;;;;;4.65;2.85;;;;;;;;;;20995499;28;20051;-63
2023/05/16 11:46:34;;;;;;;6.70;2.97;;;;;;;;;;20994138;28;20060;-64
2023/05/16 11:56:36;;;;;;;5.80;2.95;;;;;;;;;;20995912;28;20154;-63
2023/05/16 12:06:37;;;;;;;5.38;2.70;;;;;;;;;;20995014;28;20048;-68
2023/05/16 12:16:45;;;;;;;4.47;2.80;;;;;;;;;;20995018;28;20044;-69
2023/05/16 12:26:46;;;;;;;6.57;2.90;;;;;;;;;;20995024;28;20563;-69
2023/05/16 12:36:50;;;;;;;5.10;2.70;;;;;;;;;;20996686;28;20536;-69
2023/05/16 12:46:53;;;;;;;6.93;3.22;;;;;;;;;;20995524;28;20046;-70
2023/05/16 12:56:55;;;;;;;9.15;3.10;;;;;;;;;;21002040;28;20499;-68
2023/05/16 13:06:56;;;;;;;6.05;3.15;;;;;;;;;;21009562;28;20053;-68
2023/05/16 13:16:57;;;;;;;4.50;3.00;;;;;;;;;;21008887;28;20040;-70
2023/05/16 13:26:58;;;;;;;4.15;2.60;;;;;;;;;;21006992;28;20053;-70
2023/05/16 13:36:59;;;;;;;5.05;2.75;;;;;;;;;;21007452;28;20481;-69
2023/05/16 13:47:00;;;;;;;4.57;2.88;;;;;;;;;;21006530;28;20471;-69
2023/05/16 13:57:02;;;;;;;3.55;2.35;;;;;;;;;;21005781;28;20044;-69
2023/05/16 14:07:03;;;;;;;4.32;2.85;;;;;;;;;;21004118;28;20049;-69
2023/05/16 14:17:06;;;;;;;5.07;2.70;;;;;;;;;;21003431;28;20452;-70
2023/05/16 14:27:07;;;;;;;3.90;2.47;;;;;;;;;;21002110;28;20087;-69
2023/05/16 14:37:10;;;;;;;6.88;3.38;;;;;;;;;;21002501;28;20053;-69
2023/05/16 14:47:11;;;;;;;5.32;2.45;;;;;;;;;;21001448;28;20049;-70
2023/05/16 14:57:12;;;;;;;5.32;2.28;;;;;;;;;;21000538;28;20455;-69
2023/05/16 15:07:13;;;;;;;5.35;3.10;;;;;;;;;;21000110;28;20496;-69
2023/05/16 15:17:14;;;;;;;3.80;2.17;;;;;;;;;;20999111;28;20447;-69
2023/05/16 15:27:15;;;;;;;3.85;2.38;;;;;;;;;;20997263;28;20509;-61
2023/05/16 15:37:16;;;;;;;6.10;2.38;;;;;;;;;;20997309;28;20106;-70
2023/05/16 15:47:17;;;;;;;4.13;2.25;;;;;;;;;;20995003;28;20044;-66
2023/05/16 15:57:19;;;;;;;4.80;2.53;;;;;;;;;;20994665;28;20048;-70
2023/05/16 16:07:20;;;;;;;6.70;2.80;;;;;;;;;;20994250;28;20048;-59
2023/05/16 16:17:21;;;;;;;5.82;2.30;;;;;;;;;;20995424;28;20562;-61
2023/05/16 16:27:22;;;;;;;4.13;2.42;;;;;;;;;;20993739;28;20060;-65
2023/05/16 16:37:23;;;;;;;4.80;3.13;;;;;;;;;;21008797;28;20048;-61
2023/05/16 16:47:25;;;;;;;4.43;1.85;;;;;;;;;;21009502;28;20444;-61
2023/05/16 16:57:26;;;;;;;4.95;2.00;;;;;;;;;;21009179;28;20067;-67
2023/05/16 17:07:27;;;;;;;10.80;2.60;;;;;;;;;;21008410;28;20444;-63
2023/05/16 17:17:28;;;;;;;4.13;1.80;;;;;;;;;;21006882;28;20040;-66
2023/05/16 17:27:29;;;;;;;2.55;1.65;;;;;;;;;;21006908;28;20135;-65
2023/05/16 17:37:31;;;;;;;4.97;1.65;;;;;;;;;;21007134;28;20106;-71
2023/05/16 17:47:32;;;;;;;5.75;2.25;;;;;;;;;;21005370;28;20493;-71
2023/05/16 17:57:33;;;;;;;5.68;2.28;;;;;;;;;;21004368;28;20090;-72
2023/05/16 18:07:34;;;;;;;5.30;1.95;;;;;;;;;;21004781;28;20071;-70
2023/05/16 18:17:36;;;;;;;4.75;2.13;;;;;;;;;;21004198;28;20083;-71
2023/05/16 18:27:37;;;;;;;4.25;2.15;;;;;;;;;;21002416;28;20064;-70
2023/05/16 18:37:38;;;;;;;5.72;2.67;;;;;;;;;;21002723;28;20048;-70
2023/05/16 18:47:40;;;;;;;6.63;3.47;;;;;;;;;;21001053;28;20051;-71
2023/05/16 18:57:42;;;;;;;3.90;2.35;;;;;;;;;;21000137;28;20049;-71
2023/05/16 19:07:43;;;;;;;5.03;2.63;;;;;;;;;;20999774;28;20045;-70
2023/05/16 19:17:45;;;;;;;4.47;1.70;;;;;;;;;;20998547;28;20128;-70
2023/05/16 19:27:46;;;;;;;5.28;1.92;;;;;;;;;;20996555;28;20068;-69
2023/05/16 19:37:48;;;;;;;5.50;2.25;;;;;;;;;;20995301;28;20051;-70
2023/05/16 19:47:49;;;;;;;9.95;2.08;;;;;;;;;;20996095;28;20037;-65
2023/05/16 19:57:51;;;;;;;8.48;4.70;;;;;;;;;;20996622;28;20051;-65
2023/05/16 20:07:53;;;;;;;3.72;2.05;;;;;;;;;;20995883;28;20072;-66
2023/05/16 20:17:54;;;;;;;4.90;2.00;;;;;;;;;;20995476;28;20045;-65
2023/05/16 20:27:55;;;;;;;4.30;2.33;;;;;;;;;;20994168;28;20553;-66
2023/05/16 20:37:56;;;;;;;4.68;2.15;;;;;;;;;;20993117;28;20049;-65
2023/05/16 20:47:57;;;;;;;6.97;2.50;;;;;;;;;;20993128;28;20041;-64
2023/05/16 20:57:59;;;;;;;7.78;2.50;;;;;;;;;;20994558;28;20554;-64
2023/05/16 21:08:00;;;;;;;5.65;2.75;;;;;;;;;;20993469;28;20044;-65
2023/05/16 21:18:01;;;;;;;5.13;2.30;;;;;;;;;;21000638;28;20050;-65
2023/05/16 21:28:03;;;;;;;4.25;2.13;;;;;;;;;;21006330;28;20497;-66
2023/05/16 21:38:04;;;;;;;4.03;1.88;;;;;;;;;;21006200;28;20171;-65
2023/05/16 21:48:05;;;;;;;6.90;2.35;;;;;;;;;;21005775;28;20052;-65
2023/05/16 21:58:07;;;;;;;12.23;2.92;;;;;;;;;;21004784;28;20066;-65
2023/05/16 22:08:08;;;;;;;6.30;2.50;;;;;;;;;;21003218;28;20040;-65
2023/05/16 22:18:09;;;;;;;4.28;2.45;;;;;;;;;;21001586;28;20041;-64
2023/05/16 22:28:10;;;;;;;9.43;3.08;;;;;;;;;;21000281;28;20085;-65
2023/05/16 22:38:11;;;;;;;4.38;2.72;;;;;;;;;;21001213;28;20048;-65
2023/05/16 22:48:12;;;;;;;9.70;3.40;;;;;;;;;;21001339;28;20045;-64
2023/05/16 22:58:13;;;;;;;6.82;3.13;;;;;;;;;;20999307;28;20080;-65
2023/05/16 23:08:14;;;;;;;6.03;3.22;;;;;;;;;;20998853;28;20115;-65
2023/05/16 23:18:16;;;;;;;5.10;2.67;;;;;;;;;;20997780;28;20045;-65
2023/05/16 23:28:17;;;;;;;7.45;2.83;;;;;;;;;;20995688;28;20056;-65
2023/05/16 23:38:19;;;;;;;5.40;2.90;;;;;;;;;;20996433;28;20125;-65
2023/05/16 23:48:20;;;;;;;5.05;2.60;;;;;;;;;;20996447;28;20121;-65
2023/05/16 23:58:21;;;;;;;6.55;2.53;;;;;;;;;;20995714;28;20041;-65
